createdAt,value
2023-01-04T00:00:11.508Z,89.04
2023-01-04T00:03:05.912Z,89.01
2023-01-04T00:05:35.266Z,88.93
2023-01-04T00:08:10.999Z,88.89
2023-01-04T00:10:45.031Z,88.90
2023-01-04T00:13:21.897Z,88.90
2023-01-04T00:15:51.399Z,88.84
2023-01-04T00:18:27.147Z,88.80
2023-01-04T00:21:32.587Z,88.66
2023-01-04T00:24:09.538Z,88.46
2023-01-04T00:26:45.018Z,88.38
2023-01-04T00:29:18.718Z,88.35
2023-01-04T00:31:47.777Z,88.60
2023-01-04T00:34:18.900Z,88.69
2023-01-04T00:36:47.857Z,88.40
2023-01-04T00:39:17.863Z,88.37
2023-01-04T00:41:59.859Z,88.22
2023-01-04T00:44:32.098Z,88.14
2023-01-04T00:47:03.803Z,88.05
2023-01-04T00:49:32.965Z,87.93
2023-01-04T00:52:02.055Z,87.90
2023-01-04T00:54:31.149Z,87.89
2023-01-04T00:57:01.652Z,87.90
2023-01-04T00:59:44.141Z,87.89
2023-01-04T01:02:13.611Z,87.81
2023-01-04T01:04:43.094Z,87.80
2023-01-04T01:07:12.177Z,87.80
2023-01-04T01:09:41.240Z,87.87
2023-01-04T01:12:10.457Z,88.00
2023-01-04T01:14:45.839Z,88.08
2023-01-04T01:17:19.494Z,88.10
2023-01-04T01:19:48.709Z,88.05
2023-01-04T01:22:18.269Z,88.01
2023-01-04T01:24:47.919Z,88.06
2023-01-04T01:27:17.234Z,88.15
2023-01-04T01:29:46.444Z,88.27
2023-01-04T01:32:16.074Z,88.38
2023-01-04T01:34:45.582Z,88.45
2023-01-04T01:37:15.463Z,88.46
2023-01-04T01:39:44.855Z,88.48
2023-01-04T01:42:21.425Z,88.50
2023-01-04T01:45:30.350Z,88.50
2023-01-04T01:48:23.874Z,88.60
2023-01-04T01:51:04.871Z,88.60
2023-01-04T01:53:45.873Z,88.70
2023-01-04T01:56:21.300Z,88.70
2023-01-04T01:58:58.999Z,88.78
2023-01-04T02:01:30.839Z,88.80
2023-01-04T02:04:07.900Z,88.78
2023-01-04T02:06:56.833Z,88.79
2023-01-04T02:09:33.820Z,88.85
2023-01-04T02:12:14.013Z,88.84
2023-01-04T02:14:51.067Z,88.93
2023-01-04T02:18:03.667Z,88.98
2023-01-04T02:21:14.595Z,89.00
2023-01-04T02:24:05.561Z,89.00
2023-01-04T02:27:08.669Z,89.00
2023-01-04T02:30:02.217Z,89.10
2023-01-04T02:32:48.183Z,89.09
2023-01-04T02:36:05.303Z,89.06
2023-01-04T02:39:24.252Z,89.00
2023-01-04T02:42:58.080Z,89.03
2023-01-04T02:45:46.718Z,89.10
2023-01-04T02:48:39.924Z,89.10
2023-01-04T02:51:34.490Z,89.11
2023-01-04T02:54:25.750Z,89.17
2023-01-04T02:57:32.572Z,89.17
2023-01-04T03:00:30.955Z,89.16
2023-01-04T03:03:57.258Z,89.20
2023-01-04T03:07:13.568Z,89.26
2023-01-04T03:09:51.166Z,89.45
2023-01-04T03:12:58.072Z,89.41
2023-01-04T03:15:35.950Z,89.51
2023-01-04T03:18:17.134Z,89.50
2023-01-04T03:20:55.930Z,89.50
2023-01-04T03:23:56.131Z,89.43
2023-01-04T03:27:14.496Z,89.40
2023-01-04T03:30:30.125Z,89.40
2023-01-04T03:33:30.048Z,89.40
2023-01-04T03:36:34.083Z,89.41
2023-01-04T03:39:43.797Z,89.41
2023-01-04T03:43:09.328Z,89.40
2023-01-04T03:46:09.360Z,89.33
2023-01-04T03:48:58.017Z,89.31
2023-01-04T03:51:35.427Z,89.30
2023-01-04T03:54:23.549Z,89.34
2023-01-04T03:56:54.837Z,89.40
2023-01-04T03:59:25.095Z,89.40
2023-01-04T04:01:54.925Z,89.30
2023-01-04T04:04:42.827Z,89.30
2023-01-04T04:07:30.898Z,89.30
2023-01-04T04:10:00.209Z,89.31
2023-01-04T04:12:29.984Z,89.40
2023-01-04T04:14:59.566Z,89.50
2023-01-04T04:17:28.925Z,89.62
2023-01-04T04:19:58.277Z,89.72
2023-01-04T04:22:27.799Z,89.85
2023-01-04T04:24:57.110Z,89.84
2023-01-04T04:27:26.617Z,89.93
2023-01-04T04:29:55.943Z,89.93
2023-01-04T04:32:25.534Z,89.89
2023-01-04T04:34:55.066Z,89.86
2023-01-04T04:37:25.863Z,89.87
2023-01-04T04:40:03.125Z,89.80
2023-01-04T04:43:02.139Z,89.78
2023-01-04T04:45:49.233Z,89.71
2023-01-04T04:48:29.791Z,89.74
2023-01-04T04:51:32.729Z,89.70
2023-01-04T04:54:24.453Z,89.86
2023-01-04T04:57:04.904Z,89.88
2023-01-04T05:00:08.265Z,89.81
2023-01-04T05:03:22.206Z,89.73
2023-01-04T05:06:15.264Z,89.68
2023-01-04T05:08:54.287Z,89.59
2023-01-04T05:11:47.946Z,89.59
2023-01-04T05:14:17.235Z,89.65
2023-01-04T05:17:15.138Z,89.66
2023-01-04T05:20:28.460Z,89.61
2023-01-04T05:23:28.061Z,89.59
2023-01-04T05:26:11.596Z,89.56
2023-01-04T05:28:53.420Z,89.50
2023-01-04T05:31:36.997Z,89.45
2023-01-04T05:34:53.540Z,89.41
2023-01-04T05:37:32.356Z,89.44
2023-01-04T05:40:34.140Z,89.50
2023-01-04T05:43:11.654Z,89.45
2023-01-04T05:45:59.894Z,89.50
2023-01-04T05:48:39.112Z,89.54
2023-01-04T05:51:21.916Z,89.60
2023-01-04T05:54:09.395Z,89.59
2023-01-04T05:56:43.519Z,89.55
2023-01-04T05:59:17.007Z,89.51
2023-01-04T06:01:46.460Z,89.51
2023-01-04T06:04:15.457Z,89.52
2023-01-04T06:06:44.433Z,89.54
2023-01-04T06:09:14.074Z,89.46
2023-01-04T06:11:43.127Z,89.41
2023-01-04T06:14:12.328Z,89.46
2023-01-04T06:16:41.391Z,89.56
2023-01-04T06:19:10.531Z,89.61
2023-01-04T06:21:39.556Z,89.59
2023-01-04T06:24:09.080Z,89.71
2023-01-04T06:26:38.196Z,89.81
2023-01-04T06:29:07.527Z,89.82
2023-01-04T06:31:36.709Z,89.84
2023-01-04T06:34:06.383Z,89.84
2023-01-04T06:36:36.449Z,89.93
2023-01-04T06:39:05.966Z,90.03
2023-01-04T06:41:35.470Z,89.95
2023-01-04T06:44:05.326Z,89.95
2023-01-04T06:46:34.499Z,89.83
2023-01-04T06:49:05.121Z,89.80
2023-01-04T06:51:34.206Z,89.81
2023-01-04T06:54:03.101Z,89.77
2023-01-04T06:56:32.658Z,89.71
2023-01-04T06:59:01.608Z,89.61
2023-01-04T07:01:30.786Z,89.61
2023-01-04T07:03:59.964Z,89.60
2023-01-04T07:06:28.980Z,89.60
2023-01-04T07:08:58.083Z,89.60
2023-01-04T07:11:26.995Z,89.71
2023-01-04T07:13:56.186Z,89.80
2023-01-04T07:16:25.581Z,89.85
2023-01-04T07:18:54.678Z,89.88
2023-01-04T07:21:23.664Z,89.88
2023-01-04T07:23:52.779Z,89.84
2023-01-04T07:26:22.480Z,89.79
2023-01-04T07:29:10.518Z,89.67
2023-01-04T07:31:39.543Z,89.56
2023-01-04T07:34:08.701Z,89.50
2023-01-04T07:36:38.180Z,89.42
2023-01-04T07:39:13.003Z,89.30
2023-01-04T07:41:42.969Z,89.24
2023-01-04T07:44:13.158Z,89.20
2023-01-04T07:46:43.457Z,89.04
2023-01-04T07:49:17.968Z,88.85
2023-01-04T07:51:49.375Z,88.70
2023-01-04T07:54:19.318Z,88.56
2023-01-04T07:56:49.175Z,88.47
2023-01-04T07:59:21.099Z,88.38
2023-01-04T08:01:51.325Z,88.19
2023-01-04T08:04:28.348Z,88.05
2023-01-04T08:07:00.162Z,87.96
2023-01-04T08:09:29.237Z,87.78
2023-01-04T08:11:58.439Z,87.57
2023-01-04T08:14:27.399Z,87.26
2023-01-04T08:16:56.424Z,87.16
2023-01-04T08:19:25.551Z,87.00
2023-01-04T08:21:54.503Z,86.79
2023-01-04T08:24:23.399Z,86.47
2023-01-04T08:26:52.381Z,86.30
2023-01-04T08:29:21.384Z,85.96
2023-01-04T08:31:50.451Z,85.40
2023-01-04T08:34:19.363Z,85.41
2023-01-04T08:36:53.732Z,85.33
2023-01-04T08:39:22.677Z,85.25
2023-01-04T08:44:40.833Z,84.98
2023-01-04T08:47:09.837Z,84.76
2023-01-04T08:49:38.828Z,84.46
2023-01-04T08:52:09.679Z,84.18
2023-01-04T08:54:38.560Z,84.23
2023-01-04T08:57:07.561Z,84.29
2023-01-04T08:59:36.838Z,84.14
2023-01-04T09:02:24.315Z,84.37
2023-01-04T09:05:00.180Z,84.20
2023-01-04T09:07:33.196Z,84.13
2023-01-04T09:10:02.217Z,83.96
2023-01-04T09:12:31.240Z,84.08
2023-01-04T09:15:00.108Z,84.00
2023-01-04T09:17:29.309Z,83.83
2023-01-04T09:19:58.283Z,83.67
2023-01-04T09:22:27.234Z,83.47
2023-01-04T09:24:56.156Z,83.19
2023-01-04T09:27:25.178Z,83.11
2023-01-04T09:29:54.378Z,83.04
2023-01-04T09:32:23.359Z,82.66
2023-01-04T09:34:52.118Z,81.66
2023-01-04T09:37:21.119Z,81.35
2023-01-04T09:39:50.138Z,81.28
2023-01-04T09:42:33.361Z,81.10
2023-01-04T09:45:27.220Z,80.37
2023-01-04T09:48:12.423Z,79.86
2023-01-04T09:51:08.161Z,79.68
2023-01-04T09:54:01.602Z,79.30
2023-01-04T09:56:34.582Z,78.93
2023-01-04T09:59:12.995Z,78.69
2023-01-04T10:02:03.864Z,78.18
2023-01-04T10:04:52.984Z,77.93
2023-01-04T10:07:30.228Z,77.87
2023-01-04T10:10:00.841Z,77.93
2023-01-04T10:13:00.753Z,77.96
2023-01-04T10:15:57.583Z,77.09
2023-01-04T10:21:42.186Z,76.29
2023-01-04T10:24:11.547Z,74.69
2023-01-04T10:26:48.020Z,74.86
2023-01-04T10:29:41.801Z,74.28
2023-01-04T10:32:29.990Z,73.75
2023-01-04T10:34:59.042Z,73.92
2023-01-04T10:37:39.205Z,74.39
2023-01-04T10:40:16.533Z,74.04
2023-01-04T10:43:08.196Z,73.81
2023-01-04T10:45:57.260Z,73.94
2023-01-04T10:48:47.035Z,73.82
2023-01-04T10:51:26.293Z,73.83
2023-01-04T10:54:09.414Z,73.67
2023-01-04T10:57:07.162Z,72.92
2023-01-04T10:59:49.794Z,72.04
2023-01-04T11:02:33.025Z,71.82
2023-01-04T11:05:58.134Z,72.30
2023-01-04T11:08:37.675Z,72.93
2023-01-04T11:11:25.269Z,73.04
2023-01-04T11:13:54.689Z,72.76
2023-01-04T11:16:23.744Z,72.54
2023-01-04T11:18:53.514Z,72.60
2023-01-04T11:21:32.953Z,72.19
2023-01-04T11:24:30.968Z,71.81
2023-01-04T11:27:00.395Z,71.98
2023-01-04T11:29:53.211Z,71.63
2023-01-04T11:32:38.791Z,71.61
2023-01-04T11:35:08.853Z,71.75
2023-01-04T11:37:40.709Z,72.34
2023-01-04T11:40:18.933Z,72.33
2023-01-04T11:43:19.173Z,72.83
2023-01-04T11:46:20.938Z,73.10
2023-01-04T11:48:50.235Z,73.45
2023-01-04T11:51:27.678Z,73.52
2023-01-04T11:54:19.898Z,73.82
2023-01-04T11:57:19.233Z,74.17
2023-01-04T12:00:15.227Z,74.22
2023-01-04T12:03:01.307Z,74.49
2023-01-04T12:05:33.265Z,75.06
2023-01-04T12:08:02.172Z,75.28
2023-01-04T12:10:31.351Z,75.19
2023-01-04T12:13:03.439Z,75.08
2023-01-04T12:16:02.518Z,74.56
2023-01-04T12:18:38.790Z,74.70
2023-01-04T12:21:17.234Z,72.88
2023-01-04T12:23:47.295Z,72.56
2023-01-04T12:26:18.272Z,72.43
2023-01-04T12:28:54.510Z,72.58
2023-01-04T12:31:27.517Z,72.39
2023-01-04T12:34:00.146Z,72.54
2023-01-04T12:36:37.878Z,72.63
2023-01-04T12:39:15.472Z,73.07
2023-01-04T12:42:06.789Z,73.13
2023-01-04T12:44:47.239Z,73.14
2023-01-04T12:47:38.402Z,73.85
2023-01-04T12:50:20.373Z,73.67
2023-01-04T12:53:28.886Z,73.89
2023-01-04T12:55:59.559Z,74.61
2023-01-04T12:58:49.800Z,75.26
2023-01-04T13:01:28.805Z,75.45
2023-01-04T13:04:23.169Z,75.94
2023-01-04T13:06:52.927Z,76.49
2023-01-04T13:09:25.334Z,77.00
2023-01-04T13:12:27.786Z,77.70
2023-01-04T13:15:19.330Z,78.84
2023-01-04T13:17:49.638Z,79.81
2023-01-04T13:20:24.072Z,80.02
2023-01-04T13:22:57.176Z,79.51
2023-01-04T13:25:27.452Z,79.50
2023-01-04T13:28:05.854Z,79.32
2023-01-04T13:30:40.074Z,78.97
2023-01-04T13:33:28.641Z,79.48
2023-01-04T13:36:12.589Z,79.76
2023-01-04T13:38:42.097Z,79.37
2023-01-04T13:41:24.005Z,79.52
2023-01-04T13:44:32.973Z,79.47
2023-01-04T13:47:13.640Z,79.80
2023-01-04T13:49:42.897Z,80.27
2023-01-04T13:55:31.127Z,80.99
2023-01-04T13:58:03.959Z,81.21
2023-01-04T14:00:46.515Z,81.67
2023-01-04T14:03:40.935Z,82.10
2023-01-04T14:06:28.074Z,82.18
2023-01-04T14:09:04.951Z,82.39
2023-01-04T14:12:07.211Z,82.21
2023-01-04T14:14:59.475Z,82.01
2023-01-04T14:17:50.853Z,81.68
2023-01-04T14:20:25.924Z,82.05
2023-01-04T14:22:57.656Z,81.83
2023-01-04T14:25:42.298Z,82.09
2023-01-04T14:28:20.576Z,82.31
2023-01-04T14:31:00.083Z,82.77
2023-01-04T14:33:51.803Z,83.06
2023-01-04T14:36:32.855Z,83.42
2023-01-04T14:39:09.822Z,84.00
2023-01-04T14:41:40.849Z,84.35
2023-01-04T14:44:23.591Z,84.42
2023-01-04T14:46:57.371Z,84.43
2023-01-04T14:49:28.814Z,84.76
2023-01-04T14:52:04.425Z,84.89
2023-01-04T14:54:35.474Z,84.85
2023-01-04T14:57:04.648Z,84.71
2023-01-04T14:59:33.671Z,84.87
2023-01-04T15:02:02.864Z,84.86
2023-01-04T15:04:32.072Z,85.17
2023-01-04T15:07:01.890Z,85.19
2023-01-04T15:09:31.762Z,85.35
2023-01-04T15:12:00.902Z,85.47
2023-01-04T15:14:29.890Z,85.63
2023-01-04T15:16:59.016Z,85.41
2023-01-04T15:19:32.619Z,85.38
2023-01-04T15:22:06.628Z,84.92
2023-01-04T15:24:35.584Z,84.53
2023-01-04T15:27:04.504Z,84.11
2023-01-04T15:29:34.385Z,83.89
2023-01-04T15:32:03.150Z,83.53
2023-01-04T15:34:32.277Z,83.16
2023-01-04T15:37:01.050Z,83.01
2023-01-04T15:39:29.798Z,82.80
2023-01-04T15:42:16.869Z,82.46
2023-01-04T15:44:46.876Z,82.17
2023-01-04T15:47:15.867Z,82.12
2023-01-04T15:49:44.939Z,81.79
2023-01-04T15:52:13.986Z,81.52
2023-01-04T15:54:44.007Z,81.18
2023-01-04T15:57:14.585Z,81.08
2023-01-04T15:59:45.411Z,81.09
2023-01-04T16:02:15.386Z,80.84
2023-01-04T16:04:46.308Z,80.73
2023-01-04T16:07:15.208Z,80.58
2023-01-04T16:09:44.561Z,80.63
2023-01-04T16:12:32.351Z,80.54
2023-01-04T16:15:01.750Z,80.50
2023-01-04T16:17:30.723Z,80.54
2023-01-04T16:19:59.508Z,80.86
2023-01-04T16:22:28.641Z,81.06
2023-01-04T16:25:10.455Z,81.06
2023-01-04T16:27:41.511Z,81.27
2023-01-04T16:30:14.713Z,81.33
2023-01-04T16:32:44.880Z,81.26
2023-01-04T16:35:13.854Z,81.21
2023-01-04T16:37:43.569Z,80.89
2023-01-04T16:40:13.370Z,80.87
2023-01-04T16:42:42.351Z,80.72
2023-01-04T16:45:12.006Z,80.70
2023-01-04T16:47:45.008Z,80.62
2023-01-04T16:50:14.470Z,80.54
2023-01-04T16:52:43.797Z,80.62
2023-01-04T16:55:14.413Z,80.69
2023-01-04T16:57:45.257Z,80.76
2023-01-04T17:00:17.248Z,80.86
2023-01-04T17:02:46.256Z,80.92
2023-01-04T17:05:15.716Z,80.74
2023-01-04T17:07:44.718Z,80.58
2023-01-04T17:10:13.792Z,80.67
2023-01-04T17:12:47.601Z,80.66
2023-01-04T17:18:12.971Z,80.74
2023-01-04T17:20:42.619Z,80.91
2023-01-04T17:23:11.445Z,80.94
2023-01-04T17:25:40.330Z,81.02
2023-01-04T17:28:09.329Z,81.02
2023-01-04T17:30:40.408Z,81.02
2023-01-04T17:33:09.783Z,81.10
2023-01-04T17:35:40.189Z,80.95
2023-01-04T17:38:09.611Z,80.92
2023-01-04T17:40:38.691Z,80.88
2023-01-04T17:43:07.688Z,80.89
